OPA Logo
 
ASOS:
At:2021.02.26 0115 UTC
Wind:310° @ 16-24 KT
Viz: 10 mile(s)
Sky: clear
Temp: 39 F (4 C)
DewP: 23 F (-5 C)
RH: 51%
Baro: 30.13 in.
ob: KBDN 260115Z AUTO 31016G24KT 10SM CLR 04/M05 A3013 RMK AO2

ASOS: KRDM
At:2021.02.26 0056 UTC
Wind:320° @ 15-22 KT
Viz: 10 mile(s)
Sky: mostly cloudy
Temp: 41.0 F (5.0 C)
DewP: 26.1 F (-3.3 C)
RH: 54%
Baro: 30.15 in.
ob: KRDM 260056Z 32015G22KT 10SM BKN032 BKN041 05/M03 A3015 RMK AO2 PK WND 27037/0006 SLP219 T00501033
Apache-SSL Logo

Valid HTML 4.01!

Central Oregon OPA Chapter

Upcoming Fly Outs


2004

June

12 Bend, OR - Flying Festival - Bend Airport

Other Fly-Out pages

Oregon Pilots Association Events Calendar

Washington Pilots Association Events

Past Fly Outs


Caldwell, ID and the Kitfox factory February 2002

XMAS Party 2001

Pasco, WA November 2001

Bend Airport Open House 2001

Flyout May 2001 to Flying M Ranch

Flyout April 2001 to Tillamook Air Museum


Web page by: gem@rellim.com